Time;durP1;ratioP1;P1;durP2;ratioP2;P2;SDS_P1;SDS_P2;PMS_P1;PMS_P2;Temp;Humidity;BMP_temperature;BMP_pressure;BME280_temperature;BME280_humidity;BME280_pressure;Samples;Min_cycle;Max_cycle;Signal;HPM_P1;HPM_P2
2021/10/05 00:00:32;;;;;;;100.78;39.28;;;10.40;99.90;;;;;;6194032;23;20035;-89
2021/10/05 00:03:20;;;;;;;104.88;41.17;;;10.40;99.90;;;;;;6196750;23;20024;-88
2021/10/05 00:06:08;;;;;;;109.55;42.03;;;10.40;99.90;;;;;;6193767;23;20024;-88
2021/10/05 00:08:56;;;;;;;105.45;41.45;;;10.40;99.90;;;;;;6217597;23;20107;-88
2021/10/05 00:11:44;;;;;;;104.55;39.50;;;10.50;99.90;;;;;;6217241;22;20071;-89
2021/10/05 00:14:31;;;;;;;124.30;44.28;;;10.40;99.90;;;;;;6195194;23;20029;-90
2021/10/05 00:17:21;;;;;;;115.28;42.80;;;10.40;99.90;;;;;;6193892;23;20032;-88
2021/10/05 00:20:10;;;;;;;123.28;43.47;;;10.40;99.90;;;;;;6214925;23;20044;-88
2021/10/05 00:23:06;;;;;;;128.10;43.60;;;10.40;99.90;;;;;;6194423;23;20035;-87
2021/10/05 00:25:53;;;;;;;125.75;43.88;;;10.40;99.90;;;;;;6193764;23;20090;-88
2021/10/05 00:28:41;;;;;;;139.35;43.40;;;10.40;99.90;;;;;;6174679;23;20643;-88
2021/10/05 00:31:29;;;;;;;139.55;44.35;;;10.40;99.90;;;;;;6216798;23;20031;-87
2021/10/05 00:34:16;;;;;;;149.85;45.30;;;10.40;99.90;;;;;;6196556;23;20289;-89
2021/10/05 00:37:04;;;;;;;144.23;46.13;;;10.40;99.90;;;;;;6198265;22;20048;-87
2021/10/05 00:39:54;;;;;;;161.32;46.65;;;10.40;99.90;;;;;;6199185;23;20091;-88
2021/10/05 00:42:48;;;;;;;145.35;44.97;;;10.40;99.90;;;;;;6196403;23;20777;-88
2021/10/05 00:45:40;;;;;;;166.50;47.38;;;10.40;99.90;;;;;;6194536;23;20025;-88
2021/10/05 00:48:29;;;;;;;154.07;46.53;;;10.40;99.90;;;;;;6216242;23;20035;-89
2021/10/05 00:51:19;;;;;;;160.60;46.80;;;10.40;99.90;;;;;;6220092;23;20074;-88
2021/10/05 00:54:06;;;;;;;183.20;49.42;;;10.40;99.90;;;;;;6193391;23;20051;-88
2021/10/05 00:56:54;;;;;;;167.07;46.97;;;10.40;99.90;;;;;;6177275;23;20115;-88
2021/10/05 00:59:42;;;;;;;175.57;49.13;;;10.30;99.90;;;;;;6200177;23;20028;-89
2021/10/05 01:02:30;;;;;;;160.52;47.03;;;10.30;99.90;;;;;;6199898;23;20029;-88
2021/10/05 01:05:20;;;;;;;168.93;47.03;;;10.30;99.90;;;;;;6196043;23;20028;-88
2021/10/05 01:08:08;;;;;;;181.95;47.75;;;10.30;99.90;;;;;;6193709;23;20131;-87
2021/10/05 01:10:55;;;;;;;175.82;48.17;;;10.30;99.90;;;;;;6193841;23;20444;-89
2021/10/05 01:13:45;;;;;;;168.70;47.28;;;10.30;99.90;;;;;;6195806;23;20020;-89
2021/10/05 01:16:33;;;;;;;154.15;45.42;;;10.30;99.90;;;;;;6205198;23;20105;-87
2021/10/05 01:19:21;;;;;;;171.40;47.08;;;10.30;99.90;;;;;;6196811;23;20039;-88
2021/10/05 01:22:11;;;;;;;182.90;49.35;;;10.30;99.90;;;;;;6175645;23;20100;-87
2021/10/05 01:25:04;;;;;;;190.40;49.15;;;10.30;99.90;;;;;;6214036;23;20304;-87
2021/10/05 01:27:53;;;;;;;194.45;50.92;;;10.30;99.90;;;;;;6195182;23;20035;-86
2021/10/05 01:30:41;;;;;;;195.32;49.53;;;10.30;99.90;;;;;;6216906;23;20028;-89
2021/10/05 01:33:30;;;;;;;196.30;49.67;;;10.30;99.90;;;;;;6194978;23;20056;-90
2021/10/05 01:36:17;;;;;;;223.23;53.47;;;10.30;99.90;;;;;;6192458;23;20036;-89
2021/10/05 01:39:26;;;;;;;201.00;49.85;;;10.30;99.90;;;;;;6191516;23;20090;-88
2021/10/05 01:42:14;;;;;;;174.32;47.15;;;10.30;99.90;;;;;;6210800;23;20131;-88
2021/10/05 01:45:05;;;;;;;178.32;47.13;;;10.30;99.90;;;;;;6214841;23;20428;-89
2021/10/05 01:47:52;;;;;;;195.50;48.20;;;10.30;99.90;;;;;;6194665;23;20106;-88
2021/10/05 01:50:41;;;;;;;164.90;46.92;;;10.30;99.90;;;;;;6192324;23;20371;-88
2021/10/05 01:53:29;;;;;;;158.45;47.90;;;10.40;99.90;;;;;;6212875;23;20443;-88
2021/10/05 01:56:16;;;;;;;207.55;52.38;;;10.40;99.90;;;;;;6193922;23;20052;-89
2021/10/05 01:59:04;;;;;;;396.75;56.30;;;10.40;99.90;;;;;;6194898;23;20033;-89
2021/10/05 02:01:52;;;;;;;150.55;44.67;;;10.40;99.90;;;;;;6172922;23;20105;-90
2021/10/05 02:04:40;;;;;;;181.00;45.75;;;10.40;99.90;;;;;;6192635;23;20039;-90
2021/10/05 02:07:27;;;;;;;195.05;50.40;;;10.40;99.90;;;;;;6194484;23;20028;-89
2021/10/05 02:10:15;;;;;;;172.15;47.80;;;10.40;99.90;;;;;;6193687;23;20331;-90
2021/10/05 02:13:05;;;;;;;190.75;49.10;;;10.40;99.90;;;;;;6214778;23;20416;-89
2021/10/05 02:15:52;;;;;;;160.93;45.97;;;10.40;99.90;;;;;;6193312;23;20029;-90
2021/10/05 02:18:42;;;;;;;204.77;48.60;;;10.40;99.90;;;;;;6213038;23;20028;-91
2021/10/05 02:21:32;;;;;;;194.98;47.80;;;10.40;99.90;;;;;;6214936;23;20408;-89
2021/10/05 02:27:09;;;;;;;197.35;49.72;;;10.30;99.90;;;;;;6215390;23;20024;-89
2021/10/05 02:29:57;;;;;;;193.60;47.47;;;10.40;99.90;;;;;;6215501;23;20047;-89
2021/10/05 02:32:45;;;;;;;177.48;47.67;;;10.40;99.90;;;;;;6215734;23;20028;-88
2021/10/05 02:35:33;;;;;;;199.07;48.42;;;10.40;99.90;;;;;;6195204;23;20040;-91
2021/10/05 02:38:21;;;;;;;208.02;48.60;;;10.40;99.90;;;;;;6195009;23;20344;-89
2021/10/05 02:41:08;;;;;;;163.90;45.42;;;10.40;99.90;;;;;;6192965;23;20020;-90
2021/10/05 02:43:58;;;;;;;159.05;44.50;;;10.40;99.90;;;;;;6190766;23;20063;-89
2021/10/05 02:46:46;;;;;;;155.75;43.22;;;10.40;99.90;;;;;;6193677;23;20028;-89
2021/10/05 02:49:34;;;;;;;175.70;45.08;;;10.40;99.90;;;;;;6214842;23;20024;-88
2021/10/05 02:52:23;;;;;;;176.27;46.97;;;10.40;99.90;;;;;;6216887;23;20051;-89
2021/10/05 02:55:11;;;;;;;176.07;44.28;;;10.40;99.90;;;;;;6213794;23;20131;-90
2021/10/05 02:57:59;;;;;;;147.88;42.92;;;10.40;99.90;;;;;;6214822;23;20034;-89
2021/10/05 03:00:46;;;;;;;148.77;42.97;;;10.50;99.90;;;;;;6194232;23;20087;-90
2021/10/05 03:03:34;;;;;;;181.10;45.17;;;10.50;99.90;;;;;;6216019;23;20457;-89
2021/10/05 03:06:22;;;;;;;175.30;45.10;;;10.50;99.90;;;;;;6196023;23;20021;-88
2021/10/05 03:09:10;;;;;;;189.38;47.58;;;10.50;99.90;;;;;;6193085;23;20692;-87
2021/10/05 03:11:58;;;;;;;183.25;46.90;;;10.40;99.90;;;;;;6172057;23;20107;-87
2021/10/05 03:14:46;;;;;;;155.02;43.55;;;10.40;99.90;;;;;;6213413;23;20029;-89
2021/10/05 03:17:34;;;;;;;161.57;44.83;;;10.40;99.90;;;;;;6172363;23;20075;-92
2021/10/05 03:20:21;;;;;;;219.30;45.70;;;10.40;99.90;;;;;;6214623;23;20403;-89
2021/10/05 03:23:09;;;;;;;211.05;45.22;;;10.40;99.90;;;;;;6191709;23;20026;-88
2021/10/05 03:25:56;;;;;;;180.63;42.63;;;10.40;99.90;;;;;;6192803;23;20643;-89
2021/10/05 03:28:49;;;;;;;184.57;43.53;;;10.50;99.90;;;;;;6173251;23;20044;-89
2021/10/05 03:31:37;;;;;;;136.38;37.58;;;10.50;99.90;;;;;;6214923;23;20467;-90
2021/10/05 03:34:24;;;;;;;162.13;37.75;;;10.50;99.90;;;;;;6196069;23;20028;-90
2021/10/05 03:37:12;;;;;;;144.00;35.33;;;10.50;99.90;;;;;;6217047;23;20029;-92
2021/10/05 03:39:59;;;;;;;148.95;35.42;;;10.50;99.90;;;;;;6195003;23;20128;-93
2021/10/05 03:42:46;;;;;;;183.13;38.63;;;10.50;99.90;;;;;;6218795;23;20060;-90
2021/10/05 03:45:36;;;;;;;106.90;33.08;;;10.40;99.90;;;;;;6216608;23;20031;-90
2021/10/05 03:48:23;;;;;;;127.90;34.05;;;10.40;99.90;;;;;;6175621;23;20096;-91
2021/10/05 03:51:13;;;;;;;101.45;30.30;;;10.40;99.90;;;;;;6199280;23;20031;-91
2021/10/05 03:54:10;;;;;;;124.13;31.98;;;10.40;99.90;;;;;;6219669;23;20029;-89
2021/10/05 03:57:07;;;;;;;;;;;;;;;;;;;;;
2021/10/05 03:59:56;;;;;;;180.70;44.70;;;10.40;99.90;;;;;;6225523;23;20088;-89
2021/10/05 04:02:47;;;;;;;193.88;46.55;;;10.30;99.90;;;;;;6202958;23;20327;-91
2021/10/05 04:05:34;;;;;;;158.82;41.22;;;10.40;99.90;;;;;;6204383;23;20027;-90
2021/10/05 04:08:29;;;;;;;222.02;48.92;;;10.30;99.90;;;;;;6206502;23;20086;-91
2021/10/05 04:11:21;;;;;;;209.05;46.97;;;10.30;99.90;;;;;;6224647;23;20039;-89
2021/10/05 04:14:09;;;;;;;198.32;44.72;;;10.30;99.90;;;;;;6226898;23;20029;-89
2021/10/05 04:17:01;;;;;;;149.85;38.00;;;10.30;99.90;;;;;;6229141;23;20073;-90
2021/10/05 04:19:53;;;;;;;183.73;43.85;;;10.40;99.90;;;;;;6191472;23;20076;-90
2021/10/05 04:22:46;;;;;;;178.25;43.13;;;10.30;99.90;;;;;;6213668;23;20036;-90
2021/10/05 04:25:36;;;;;;;185.38;42.70;;;10.40;99.90;;;;;;6212636;23;20084;-89
2021/10/05 04:28:27;;;;;;;172.32;42.80;;;10.30;99.90;;;;;;6212705;23;20027;-89
2021/10/05 04:31:15;;;;;;;148.60;39.17;;;10.30;99.90;;;;;;6226289;23;20024;-90
2021/10/05 04:34:03;;;;;;;152.27;37.78;;;10.30;99.90;;;;;;6223224;23;20024;-91
2021/10/05 04:36:52;;;;;;;119.10;34.72;;;10.20;99.90;;;;;;6205671;23;20044;-91
2021/10/05 04:39:39;;;;;;;133.35;33.83;;;10.30;99.90;;;;;;6203132;23;20088;-89
2021/10/05 04:42:27;;;;;;;137.85;34.47;;;10.30;99.90;;;;;;6205780;23;20044;-90
2021/10/05 05:40:41;;;;;;;165.02;36.60;;;10.30;99.90;;;;;;6085852;23;20102;-90
2021/10/05 05:43:29;;;;;;;196.75;39.88;;;10.30;99.90;;;;;;6168614;23;20290;-89
2021/10/05 05:50:50;;;;;;;177.30;37.72;;;10.40;99.90;;;;;;5942958;24;20030;-89
2021/10/05 06:37:58;;;;;;;;;;;;;;;;;;;;;
2021/10/05 06:49:12;;;;;;;98.05;28.02;;;10.60;99.90;;;;;;4936784;28;20031;-89
2021/10/05 06:52:24;;;;;;;;;;;;;;;;;;;;;
2021/10/05 06:56:25;;;;;;;;;;;;;;;;;;;;;
2021/10/05 07:03:21;;;;;;;75.80;25.27;;;10.80;99.90;;;;;;5042913;28;20041;-90
2021/10/05 07:06:30;;;;;;;60.03;21.00;;;10.80;99.90;;;;;;4969187;28;20116;-89
2021/10/05 07:17:13;;;;;;;45.22;18.42;;;11.00;99.90;;;;;;4941061;28;20134;-90
2021/10/05 07:25:03;;;;;;;41.92;17.95;;;11.10;99.90;;;;;;4910430;29;20413;-88
2021/10/05 07:28:10;;;;;;;39.90;18.30;;;11.10;99.90;;;;;;4938716;28;20042;-87
2021/10/05 07:39:26;;;;;;;25.58;13.88;;;11.10;99.90;;;;;;4916290;29;20079;-92
2021/10/05 07:42:48;;;;;;;;;;;;;;;;;;;;;
2021/10/05 07:46:00;;;;;;;20.10;12.25;;;11.10;99.90;;;;;;5088079;27;20480;-88
2021/10/05 07:49:53;;;;;;;;;;;;;;;;;;;;;
2021/10/05 07:53:56;;;;;;;;;;;;;;;;;;;;;
2021/10/05 07:57:17;;;;;;;14.23;9.93;;;11.10;99.90;;;;;;5004298;28;20049;-90
2021/10/05 08:01:06;;;;;;;15.30;10.50;;;11.10;99.90;;;;;;5031139;28;20145;-91
2021/10/05 08:08:51;;;;;;;20.17;12.35;;;11.20;99.90;;;;;;4953024;29;20043;-91
2021/10/05 08:11:54;;;;;;;26.48;14.20;;;11.30;99.90;;;;;;4948291;28;20067;-91
2021/10/05 08:15:44;;;;;;;;;;;;;;;;;;;;;
2021/10/05 08:23:07;;;;;;;23.60;14.23;;;11.60;99.90;;;;;;4821584;29;20141;-89
2021/10/05 08:25:56;;;;;;;26.60;15.80;;;11.50;99.90;;;;;;4869489;29;20135;-89
2021/10/05 08:28:47;;;;;;;33.10;19.13;;;11.50;99.90;;;;;;4895987;29;20094;-89
2021/10/05 08:31:37;;;;;;;35.85;20.30;;;11.50;99.90;;;;;;4922547;28;20044;-87
2021/10/05 08:34:31;;;;;;;36.40;21.02;;;11.50;99.90;;;;;;4992618;28;20053;-89
2021/10/05 08:37:36;;;;;;;;;;;;;;;;;;;;;
2021/10/05 08:41:08;;;;;;;;;;;;;;;;;;;;;
2021/10/05 08:43:59;;;;;;;25.48;15.13;;;12.00;99.90;;;;;;5019982;28;20114;-89
2021/10/05 08:47:08;;;;;;;30.65;15.75;;;11.90;99.90;;;;;;5006011;28;20241;-89
2021/10/05 08:49:58;;;;;;;22.40;14.07;;;11.80;99.90;;;;;;5004966;28;20046;-90
2021/10/05 08:52:53;;;;;;;23.90;15.07;;;11.70;99.90;;;;;;5001959;28;20046;-90
2021/10/05 08:56:03;;;;;;;21.23;12.75;;;11.80;99.90;;;;;;4940919;28;20112;-91
2021/10/05 08:59:01;;;;;;;20.52;12.90;;;11.70;99.90;;;;;;4931292;29;20088;-91
2021/10/05 09:01:53;;;;;;;17.35;12.40;;;11.80;99.90;;;;;;4936696;29;20071;-92
2021/10/05 09:05:15;;;;;;;19.33;12.80;;;11.90;99.90;;;;;;4880418;29;20112;-89
2021/10/05 09:09:02;;;;;;;19.00;12.50;;;11.90;99.90;;;;;;4884141;29;20434;-92
2021/10/05 09:16:31;;;;;;;19.13;12.43;;;11.90;99.90;;;;;;4800140;29;20035;-89
2021/10/05 09:20:22;;;;;;;17.58;12.65;;;12.00;99.90;;;;;;4814951;29;20070;-90
2021/10/05 09:23:32;;;;;;;14.43;10.10;;;12.10;99.90;;;;;;4850159;29;20502;-92
2021/10/05 09:26:49;;;;;;;;;;;;;;;;;;;;;
2021/10/05 09:29:49;;;;;;;12.35;9.10;;;12.80;99.90;;;;;;4872637;29;20457;-90
2021/10/05 09:32:40;;;;;;;13.40;9.40;;;12.90;99.90;;;;;;4864933;29;20062;-90
2021/10/05 09:36:09;;;;;;;;;;;;;;;;;;;;;
2021/10/05 09:39:53;;;;;;;;;;;;;;;;;;;;;
2021/10/05 09:43:18;;;;;;;10.77;8.25;;;13.40;99.90;;;;;;4842790;29;20468;-93
2021/10/05 09:46:16;;;;;;;6.85;5.97;;;13.60;99.90;;;;;;4839394;29;20045;-88
2021/10/05 09:49:10;;;;;;;7.40;6.20;;;13.70;99.90;;;;;;4855353;29;20057;-93
2021/10/05 09:52:00;;;;;;;6.28;5.57;;;14.00;99.90;;;;;;4839690;29;20081;-91
2021/10/05 09:54:58;;;;;;;;;;;;;;;;;;;;;
2021/10/05 09:58:18;;;;;;;5.95;5.18;;;14.30;99.90;;;;;;4998578;28;20165;-89
2021/10/05 10:01:38;;;;;;;6.18;5.10;;;14.00;99.90;;;;;;4995539;28;20090;-93
2021/10/05 10:04:30;;;;;;;6.93;5.40;;;13.90;99.90;;;;;;4998967;28;20066;-90
2021/10/05 10:07:18;;;;;;;6.45;4.90;;;13.90;99.90;;;;;;4988958;28;20049;-89
2021/10/05 10:10:10;;;;;;;6.15;4.78;;;13.80;99.90;;;;;;4985464;28;20056;-88
2021/10/05 10:13:01;;;;;;;7.82;5.15;;;13.60;99.90;;;;;;4983990;28;20042;-87
2021/10/05 10:15:50;;;;;;;5.55;5.00;;;13.60;99.90;;;;;;4993551;28;20103;-91
2021/10/05 10:19:02;;;;;;;6.78;5.53;;;13.60;99.90;;;;;;4981399;28;20055;-88
2021/10/05 10:22:11;;;;;;;5.80;5.20;;;13.50;99.90;;;;;;4991068;28;20340;-91
2021/10/05 10:24:59;;;;;;;7.50;4.93;;;13.50;99.90;;;;;;4989994;28;20157;-89
2021/10/05 10:27:47;;;;;;;4.22;3.83;;;13.60;99.90;;;;;;4989901;28;20534;-90
2021/10/05 10:30:34;;;;;;;3.72;3.35;;;13.80;99.90;;;;;;4990556;28;20050;-90
2021/10/05 10:33:29;;;;;;;6.07;4.10;;;14.20;99.90;;;;;;4985427;28;20158;-89
2021/10/05 10:36:40;;;;;;;4.20;3.45;;;14.40;99.90;;;;;;5002780;28;20121;-87
2021/10/05 10:39:45;;;;;;;4.35;3.95;;;14.20;99.90;;;;;;5092073;28;20036;-90
2021/10/05 10:42:47;;;;;;;;;;;;;;;;;;;;;
2021/10/05 10:46:03;;;;;;;4.95;3.47;;;14.00;99.90;;;;;;5075593;28;20121;-89
2021/10/05 10:49:15;;;;;;;;;;;;;;;;;;;;;
2021/10/05 10:52:19;;;;;;;;;;;;;;;;;;;;;
2021/10/05 10:55:08;;;;;;;2.70;2.50;;;13.50;99.90;;;;;;5086445;28;20070;-90
2021/10/05 10:58:13;;;;;;;3.00;2.80;;;13.50;99.90;;;;;;5091505;28;20418;-89
2021/10/05 11:01:56;;;;;;;2.95;2.75;;;13.50;99.90;;;;;;5082876;28;20116;-91
2021/10/05 11:04:54;;;;;;;3.15;2.50;;;13.50;99.90;;;;;;5092917;28;20103;-90
2021/10/05 11:08:16;;;;;;;4.63;2.67;;;13.60;99.90;;;;;;5085464;28;20357;-90
2021/10/05 11:11:43;;;;;;;3.03;2.72;;;13.70;99.90;;;;;;5091813;28;20040;-89
2021/10/05 11:14:46;;;;;;;2.25;2.05;;;14.00;99.90;;;;;;5086735;28;20449;-90
2021/10/05 11:21:44;;;;;;;2.42;2.22;;;14.40;99.90;;;;;;5015460;28;20045;-87
2021/10/05 11:24:51;;;;;;;2.22;2.13;;;14.30;99.90;;;;;;5073051;28;20063;-91
2021/10/05 11:27:45;;;;;;;2.10;1.90;;;14.30;99.90;;;;;;5094280;28;20111;-88
2021/10/05 11:30:58;;;;;;;2.47;2.25;;;14.30;99.90;;;;;;5101650;28;20155;-87
2021/10/05 11:33:57;;;;;;;2.67;1.63;;;14.40;99.90;;;;;;5074822;28;20055;-86
2021/10/05 11:36:48;;;;;;;2.15;1.88;;;14.50;99.90;;;;;;5081816;28;20381;-85
2021/10/05 11:39:38;;;;;;;1.60;1.50;;;14.40;99.90;;;;;;5084113;28;20082;-87
2021/10/05 11:42:30;;;;;;;1.77;1.67;;;14.40;99.90;;;;;;5085698;28;20063;-87
2021/10/05 11:45:29;;;;;;;1.50;1.40;;;14.30;99.90;;;;;;5072621;28;20090;-85
2021/10/05 11:48:19;;;;;;;2.90;1.45;;;14.30;99.90;;;;;;5091772;28;20040;-85
2021/10/05 11:51:11;;;;;;;3.65;1.60;;;14.30;99.90;;;;;;5076660;28;20047;-86
2021/10/05 11:54:01;;;;;;;2.97;1.63;;;14.20;99.90;;;;;;5078400;28;20076;-89
2021/10/05 11:56:52;;;;;;;1.42;1.33;;;14.10;99.90;;;;;;5056607;28;20507;-85
2021/10/05 11:59:42;;;;;;;1.58;1.23;;;14.20;99.90;;;;;;5078869;28;20060;-85
2021/10/05 12:02:30;;;;;;;2.83;1.15;;;14.30;99.90;;;;;;5065822;28;20036;-83
2021/10/05 12:05:25;;;;;;;2.25;1.08;;;14.40;99.90;;;;;;5086427;28;20465;-85
2021/10/05 12:08:15;;;;;;;1.10;1.10;;;14.70;99.90;;;;;;5092255;28;20150;-84
2021/10/05 12:11:05;;;;;;;0.88;0.82;;;15.10;99.90;;;;;;5089182;28;20055;-84
2021/10/05 12:14:02;;;;;;;;;;;16.40;99.90;;;;;;5059982;28;20087;-85
2021/10/05 12:16:56;;;;;;;1.05;0.88;;;17.80;99.90;;;;;;5074080;28;20020;-89
2021/10/05 12:19:49;;;;;;;2.28;0.80;;;18.90;99.90;;;;;;5067842;28;20040;-86
2021/10/05 12:22:40;;;;;;;3.00;0.70;;;17.70;99.90;;;;;;5083397;28;20051;-85
2021/10/05 12:25:39;;;;;;;3.67;1.00;;;16.50;99.90;;;;;;5074711;28;20047;-86
2021/10/05 12:28:30;;;;;;;5.47;1.92;;;15.90;99.90;;;;;;5075210;28;20426;-86
2021/10/05 12:31:19;;;;;;;1.38;1.27;;;15.50;99.90;;;;;;5090768;28;20506;-84
2021/10/05 12:34:07;;;;;;;4.05;1.20;;;15.40;99.90;;;;;;5080087;28;20373;-84
2021/10/05 12:36:59;;;;;;;1.17;1.02;;;15.50;99.90;;;;;;5091796;28;20048;-85
2021/10/05 12:39:58;;;;;;;0.80;0.80;;;15.80;99.90;;;;;;5093691;28;20388;-85
2021/10/05 12:42:47;;;;;;;3.35;0.90;;;16.30;99.90;;;;;;5085819;28;20491;-85
2021/10/05 12:45:37;;;;;;;0.63;0.63;;;16.50;99.90;;;;;;5080848;28;20044;-88
2021/10/05 12:48:44;;;;;;;9.40;1.15;;;16.60;99.90;;;;;;5075454;28;20048;-86
2021/10/05 12:51:43;;;;;;;1.42;0.93;;;17.00;99.90;;;;;;5071316;28;20123;-86
2021/10/05 12:54:51;;;;;;;2.20;0.68;;;16.70;99.90;;;;;;5074185;28;20137;-84
2021/10/05 12:57:40;;;;;;;1.45;0.80;;;16.60;99.90;;;;;;5055571;28;20114;-85
2021/10/05 13:00:29;;;;;;;1.50;0.90;;;17.20;99.90;;;;;;5087427;28;20473;-83
2021/10/05 13:03:16;;;;;;;0.68;0.60;;;18.60;99.90;;;;;;5070834;28;20400;-83
2021/10/05 13:06:04;;;;;;;0.50;0.50;;;19.00;99.90;;;;;;5072195;28;20040;-82
2021/10/05 13:08:52;;;;;;;0.65;0.60;;;19.20;99.90;;;;;;5091764;28;20415;-85
2021/10/05 13:11:40;;;;;;;0.60;0.50;;;19.30;99.90;;;;;;5068718;28;20044;-86
2021/10/05 13:14:33;;;;;;;0.80;0.80;;;18.50;99.90;;;;;;5092149;28;20047;-86
2021/10/05 13:17:21;;;;;;;0.47;0.47;;;18.60;99.90;;;;;;5048701;28;20049;-86
2021/10/05 13:20:11;;;;;;;0.50;0.50;;;18.60;99.90;;;;;;5071416;28;20072;-85
2021/10/05 13:23:03;;;;;;;1.50;0.80;;;18.20;99.90;;;;;;5074615;28;20054;-83
2021/10/05 13:25:51;;;;;;;2.65;0.77;;;17.50;99.90;;;;;;5092302;28;20074;-86
2021/10/05 13:28:38;;;;;;;2.15;0.60;;;17.00;99.90;;;;;;5088602;28;20066;-84
2021/10/05 13:31:28;;;;;;;0.85;0.60;;;17.60;99.90;;;;;;5067523;28;20487;-88
2021/10/05 13:34:16;;;;;;;0.70;0.68;;;17.90;99.90;;;;;;5086276;28;20127;-86
2021/10/05 13:37:03;;;;;;;0.90;0.70;;;17.20;99.90;;;;;;5077949;28;20044;-85
2021/10/05 13:39:51;;;;;;;8.18;0.80;;;17.20;99.90;;;;;;5088255;28;20105;-82
2021/10/05 13:42:41;;;;;;;0.68;0.68;;;16.80;99.90;;;;;;5079559;28;20091;-83
2021/10/05 13:45:28;;;;;;;0.90;0.60;;;16.70;99.90;;;;;;5091675;28;20059;-83
2021/10/05 13:48:18;;;;;;;1.23;0.50;;;17.20;99.90;;;;;;5061747;28;20186;-82
2021/10/05 13:51:05;;;;;;;3.38;0.65;;;17.60;99.90;;;;;;5088483;28;20090;-84
2021/10/05 13:53:57;;;;;;;0.50;0.50;;;17.70;99.90;;;;;;5086750;28;20501;-85
2021/10/05 13:56:46;;;;;;;0.40;0.40;;;17.80;99.90;;;;;;5060619;28;20047;-83
2021/10/05 13:59:35;;;;;;;1.20;0.70;;;18.40;99.90;;;;;;5089471;28;20044;-82
2021/10/05 14:02:23;;;;;;;0.70;0.70;;;19.80;99.90;;;;;;5100848;28;20040;-83
2021/10/05 14:05:11;;;;;;;0.57;0.55;;;19.80;99.90;;;;;;5081430;28;20048;-85
2021/10/05 14:07:58;;;;;;;1.70;0.60;;;19.90;99.90;;;;;;5069336;28;20036;-84
2021/10/05 14:10:45;;;;;;;0.88;0.43;;;20.60;98.40;;;;;;5068147;28;20040;-84
2021/10/05 14:13:33;;;;;;;0.95;0.50;;;20.70;96.60;;;;;;5070748;28;20039;-83
2021/10/05 14:16:20;;;;;;;0.60;0.60;;;21.00;95.80;;;;;;5078600;28;20048;-84
2021/10/05 14:19:08;;;;;;;1.95;0.50;;;21.50;94.90;;;;;;5091193;28;20180;-86
2021/10/05 14:21:55;;;;;;;2.42;0.60;;;22.50;92.20;;;;;;5076715;28;20051;-84
2021/10/05 14:24:49;;;;;;;2.50;0.63;;;22.80;88.20;;;;;;5050319;28;20048;-84
2021/10/05 14:27:40;;;;;;;0.60;0.60;;;22.40;87.00;;;;;;5103247;28;20048;-86
2021/10/05 14:30:27;;;;;;;1.38;0.40;;;20.90;91.40;;;;;;5088026;28;20054;-84
2021/10/05 14:33:17;;;;;;;2.30;1.60;;;20.10;93.20;;;;;;5063818;28;20519;-82
2021/10/05 14:36:05;;;;;;;1.80;1.42;;;19.80;92.30;;;;;;5075061;28;20431;-84
2021/10/05 14:38:54;;;;;;;0.70;0.70;;;20.20;92.30;;;;;;5088235;28;20154;-84
2021/10/05 14:41:41;;;;;;;2.67;0.50;;;20.90;90.50;;;;;;5078445;28;20495;-84
2021/10/05 14:44:29;;;;;;;0.50;0.50;;;20.90;90.30;;;;;;5055937;28;20060;-83
2021/10/05 14:47:22;;;;;;;0.50;0.50;;;20.10;90.50;;;;;;5084895;28;20043;-85
2021/10/05 14:50:10;;;;;;;1.33;0.80;;;19.80;92.10;;;;;;5080707;28;20051;-85
2021/10/05 14:52:57;;;;;;;0.65;0.60;;;19.90;92.60;;;;;;5086060;28;20099;-86
2021/10/05 14:55:44;;;;;;;0.98;0.68;;;19.00;94.80;;;;;;5077269;28;20131;-82
2021/10/05 14:58:35;;;;;;;0.88;0.57;;;19.40;94.80;;;;;;5073984;28;20135;-88
2021/10/05 15:01:23;;;;;;;1.58;0.60;;;19.10;94.70;;;;;;5086761;28;20134;-85
2021/10/05 15:04:12;;;;;;;1.00;0.70;;;18.70;95.80;;;;;;5082657;28;20063;-83
2021/10/05 15:06:59;;;;;;;0.70;0.70;;;18.00;98.10;;;;;;5086519;28;20043;-86
2021/10/05 15:09:47;;;;;;;1.50;0.77;;;17.70;99.40;;;;;;5087905;28;20076;-83
2021/10/05 15:12:35;;;;;;;0.65;0.60;;;18.30;98.30;;;;;;5072702;28;20041;-87
2021/10/05 15:15:24;;;;;;;0.80;0.60;;;18.90;97.70;;;;;;5090587;28;20051;-87
2021/10/05 15:18:13;;;;;;;0.60;0.50;;;19.70;94.40;;;;;;5073349;28;20048;-85
2021/10/05 15:21:01;;;;;;;0.73;0.73;;;20.10;93.40;;;;;;5082606;28;20406;-84
2021/10/05 15:23:48;;;;;;;1.25;0.70;;;20.00;94.20;;;;;;5091870;28;20464;-83
2021/10/05 15:26:36;;;;;;;2.30;0.77;;;20.20;93.00;;;;;;5077240;28;20464;-86
2021/10/05 15:29:23;;;;;;;1.58;1.08;;;19.40;94.90;;;;;;5093760;28;20134;-84
2021/10/05 15:32:10;;;;;;;1.50;0.80;;;18.00;98.10;;;;;;5091868;28;20051;-87
2021/10/05 15:34:57;;;;;;;2.10;0.68;;;17.20;99.90;;;;;;5088306;28;20072;-86
2021/10/05 15:37:47;;;;;;;1.65;0.95;;;16.70;99.90;;;;;;5062595;28;20048;-86
2021/10/05 15:40:37;;;;;;;2.50;0.80;;;17.10;99.90;;;;;;5076288;28;20069;-85
2021/10/05 15:43:24;;;;;;;1.40;0.80;;;17.60;99.90;;;;;;5050778;28;20137;-87
2021/10/05 15:46:13;;;;;;;0.75;0.68;;;18.30;99.90;;;;;;5078015;28;20068;-87
2021/10/05 15:49:01;;;;;;;1.80;0.60;;;19.00;95.70;;;;;;5063791;28;20052;-84
2021/10/05 15:51:57;;;;;;;1.10;0.70;;;19.00;96.50;;;;;;5086644;28;20040;-87
2021/10/05 15:54:45;;;;;;;2.38;0.63;;;18.20;98.40;;;;;;5088856;28;20048;-86
2021/10/05 15:57:32;;;;;;;0.82;0.50;;;17.00;99.90;;;;;;5077898;28;20142;-87
2021/10/05 16:00:22;;;;;;;1.23;0.50;;;16.20;99.90;;;;;;5092608;28;20052;-85
2021/10/05 16:03:10;;;;;;;0.57;0.40;;;15.80;99.50;;;;;;5089087;28;20072;-83
2021/10/05 16:05:57;;;;;;;2.53;1.02;;;15.40;99.90;;;;;;5089835;28;20059;-84
2021/10/05 16:08:46;;;;;;;1.15;0.60;;;15.20;99.90;;;;;;5075279;28;20099;-84
2021/10/05 16:11:40;;;;;;;1.35;0.60;;;14.90;99.90;;;;;;5094584;28;20416;-88
2021/10/05 16:14:28;;;;;;;1.38;0.70;;;14.70;99.90;;;;;;5096492;28;20121;-87
2021/10/05 16:17:15;;;;;;;2.42;0.70;;;14.50;99.90;;;;;;5091436;28;20064;-89
2021/10/05 16:20:06;;;;;;;0.82;0.80;;;14.40;99.90;;;;;;5092562;28;20059;-87
2021/10/05 16:22:55;;;;;;;0.82;0.75;;;14.30;99.90;;;;;;5103394;28;20036;-86
2021/10/05 16:25:45;;;;;;;1.50;0.60;;;14.10;99.90;;;;;;5094888;28;20055;-86
2021/10/05 16:28:34;;;;;;;2.40;0.77;;;14.00;99.90;;;;;;5089969;28;20356;-87
2021/10/05 16:31:21;;;;;;;1.40;0.70;;;13.90;99.90;;;;;;5080392;28;20141;-84
2021/10/05 16:34:08;;;;;;;2.58;0.90;;;13.80;99.90;;;;;;5063950;28;20051;-86
2021/10/05 16:37:15;;;;;;;1.55;0.77;;;13.70;99.90;;;;;;5090886;28;20056;-86
2021/10/05 16:40:03;;;;;;;1.88;0.95;;;13.60;99.90;;;;;;5086338;28;20535;-85
2021/10/05 16:42:53;;;;;;;2.35;1.27;;;13.50;99.90;;;;;;5080529;28;20473;-86
2021/10/05 16:45:41;;;;;;;2.55;1.48;;;13.50;99.90;;;;;;5094645;28;20048;-86
2021/10/05 16:48:29;;;;;;;3.42;1.33;;;13.40;99.90;;;;;;5074438;28;20505;-84
2021/10/05 16:51:16;;;;;;;1.40;1.00;;;13.40;99.90;;;;;;5095057;28;20071;-84
2021/10/05 16:54:03;;;;;;;1.73;1.30;;;13.40;99.90;;;;;;5095925;28;20443;-86
2021/10/05 16:56:55;;;;;;;2.22;1.50;;;13.40;99.90;;;;;;5094551;28;20078;-85
2021/10/05 16:59:42;;;;;;;3.10;1.10;;;13.40;99.90;;;;;;5083408;28;20090;-86
2021/10/05 17:02:29;;;;;;;4.72;1.33;;;13.50;99.90;;;;;;5086865;28;20205;-86
2021/10/05 17:05:17;;;;;;;1.67;0.90;;;13.60;99.90;;;;;;5077958;28;20068;-86
2021/10/05 17:08:04;;;;;;;1.63;0.98;;;13.60;99.90;;;;;;5064128;28;20052;-86
2021/10/05 17:10:54;;;;;;;1.67;0.90;;;13.70;99.90;;;;;;5095099;28;20055;-87
2021/10/05 17:13:51;;;;;;;0.77;0.77;;;13.80;99.90;;;;;;5096159;28;20032;-87
2021/10/05 17:16:43;;;;;;;1.30;0.75;;;13.90;99.90;;;;;;5095556;28;20113;-87
2021/10/05 17:19:30;;;;;;;1.70;0.70;;;13.90;99.90;;;;;;5070752;28;20040;-88
2021/10/05 17:22:17;;;;;;;2.28;1.00;;;13.80;99.90;;;;;;5077128;28;20045;-84
2021/10/05 17:25:06;;;;;;;2.30;0.98;;;13.70;99.90;;;;;;5074542;28;20149;-85
2021/10/05 17:27:54;;;;;;;4.50;1.30;;;13.50;99.90;;;;;;5068871;28;20462;-85
2021/10/05 17:30:42;;;;;;;2.47;1.92;;;13.30;99.90;;;;;;5067325;28;20194;-86
2021/10/05 17:33:29;;;;;;;2.85;1.23;;;13.20;99.90;;;;;;5092363;28;20048;-86
2021/10/05 17:36:16;;;;;;;0.90;0.90;;;13.10;99.90;;;;;;5078310;28;20468;-84
2021/10/05 17:39:04;;;;;;;0.95;0.80;;;13.00;99.90;;;;;;5087618;28;20158;-87
2021/10/05 17:41:52;;;;;;;1.42;0.90;;;12.90;99.90;;;;;;5078842;28;20055;-86
2021/10/05 17:44:41;;;;;;;3.63;1.10;;;12.80;99.90;;;;;;5068414;28;20056;-88
2021/10/05 17:47:33;;;;;;;2.95;1.30;;;12.80;99.90;;;;;;5094071;28;20047;-86
2021/10/05 17:50:20;;;;;;;0.80;0.80;;;12.70;99.90;;;;;;5094482;28;20125;-87
2021/10/05 17:53:09;;;;;;;3.42;0.90;;;12.70;99.90;;;;;;5093743;28;20048;-88